EGTK/OXF METAR and TAF weather

Enter ICAO airport designator
Station Type Date Time Source
EGTK METAR 2021/09/23 17:50 UTC NOAA

EGTK 231750Z VRB03KT 9999 FEW012 19/11 Q1018


Station Type Date Time Source
EGTK Decoded METAR 2021/09/23 17:50 UTC NOAA

Station name not available
Sep 23, 2021 - 01:50 PM EDT / 2021.09.23 1750 UTC
Wind: Variable at 3 MPH (3 KT):0
Visibility: greater than 7 mile(s):0
Sky conditions: mostly clear
Temperature: 66 F (19 C)
Dew Point: 51 F (11 C)
Relative Humidity: 59%
Pressure (altimeter): 30.06 in. Hg (1018 hPa)
ob: EGTK 231750Z VRB03KT 9999 FEW012 19/11 Q1018
cycle: 18

Station Type Date Time Source
EGTK TAF UTC NOAA

Error!

Example: see airport list